sensor_id;sensor_type;location;lat;lon;timestamp;temperature;humidity
67748;HTU21D;54543;50.712;6.070;2022-12-05T00:01:56;2.74;87.54
67748;HTU21D;54543;50.712;6.070;2022-12-05T00:04:22;2.76;87.54
67748;HTU21D;54543;50.712;6.070;2022-12-05T00:06:47;2.75;87.52
67748;HTU21D;54543;50.712;6.070;2022-12-05T00:09:13;2.76;87.57
67748;HTU21D;54543;50.712;6.070;2022-12-05T00:11:41;2.78;87.61
67748;HTU21D;54543;50.712;6.070;2022-12-05T00:14:08;2.78;87.58
67748;HTU21D;54543;50.712;6.070;2022-12-05T00:16:36;2.75;87.54
67748;HTU21D;54543;50.712;6.070;2022-12-05T00:19:03;2.74;87.65
67748;HTU21D;54543;50.712;6.070;2022-12-05T00:21:32;2.73;87.73
67748;HTU21D;54543;50.712;6.070;2022-12-05T00:23:59;2.75;87.80
67748;HTU21D;54543;50.712;6.070;2022-12-05T00:26:25;2.76;87.83
67748;HTU21D;54543;50.712;6.070;2022-12-05T00:28:51;2.76;87.78
67748;HTU21D;54543;50.712;6.070;2022-12-05T00:31:20;2.75;87.81
67748;HTU21D;54543;50.712;6.070;2022-12-05T00:33:47;2.76;87.76
67748;HTU21D;54543;50.712;6.070;2022-12-05T00:36:21;2.75;87.83
67748;HTU21D;54543;50.712;6.070;2022-12-05T00:38:47;2.74;87.80
67748;HTU21D;54543;50.712;6.070;2022-12-05T00:41:18;2.76;87.95
67748;HTU21D;54543;50.712;6.070;2022-12-05T00:43:44;2.78;87.96
67748;HTU21D;54543;50.712;6.070;2022-12-05T00:46:13;2.81;87.93
67748;HTU21D;54543;50.712;6.070;2022-12-05T00:48:39;2.81;87.86
67748;HTU21D;54543;50.712;6.070;2022-12-05T00:51:10;2.82;87.84
67748;HTU21D;54543;50.712;6.070;2022-12-05T00:53:36;2.82;87.85
67748;HTU21D;54543;50.712;6.070;2022-12-05T00:56:03;2.81;87.80
67748;HTU21D;54543;50.712;6.070;2022-12-05T00:58:30;2.82;87.83
67748;HTU21D;54543;50.712;6.070;2022-12-05T01:00:57;2.83;87.80
67748;HTU21D;54543;50.712;6.070;2022-12-05T01:03:22;2.84;87.83
67748;HTU21D;54543;50.712;6.070;2022-12-05T01:05:48;2.84;87.81
67748;HTU21D;54543;50.712;6.070;2022-12-05T01:08:13;2.84;87.74
67748;HTU21D;54543;50.712;6.070;2022-12-05T01:10:39;2.82;87.64
67748;HTU21D;54543;50.712;6.070;2022-12-05T01:13:04;2.82;87.55
67748;HTU21D;54543;50.712;6.070;2022-12-05T01:15:30;2.81;87.56
67748;HTU21D;54543;50.712;6.070;2022-12-05T01:17:55;2.78;87.54
67748;HTU21D;54543;50.712;6.070;2022-12-05T01:20:21;2.78;87.56
67748;HTU21D;54543;50.712;6.070;2022-12-05T01:22:46;2.76;87.46
67748;HTU21D;54543;50.712;6.070;2022-12-05T01:25:12;2.75;87.39
67748;HTU21D;54543;50.712;6.070;2022-12-05T01:27:37;2.72;87.37
67748;HTU21D;54543;50.712;6.070;2022-12-05T01:30:04;2.71;87.36
67748;HTU21D;54543;50.712;6.070;2022-12-05T01:32:30;2.71;87.41
67748;HTU21D;54543;50.712;6.070;2022-12-05T01:34:55;2.71;87.42
67748;HTU21D;54543;50.712;6.070;2022-12-05T01:37:21;2.71;87.35
67748;HTU21D;54543;50.712;6.070;2022-12-05T01:39:48;2.69;87.20
67748;HTU21D;54543;50.712;6.070;2022-12-05T01:42:13;2.68;87.16
67748;HTU21D;54543;50.712;6.070;2022-12-05T01:47:07;2.64;87.32
67748;HTU21D;54543;50.712;6.070;2022-12-05T01:49:36;2.64;87.31
67748;HTU21D;54543;50.712;6.070;2022-12-05T01:52:07;2.62;87.25
67748;HTU21D;54543;50.712;6.070;2022-12-05T01:54:36;2.60;87.23
67748;HTU21D;54543;50.712;6.070;2022-12-05T01:57:05;2.60;87.32
67748;HTU21D;54543;50.712;6.070;2022-12-05T01:59:34;2.60;87.35
67748;HTU21D;54543;50.712;6.070;2022-12-05T02:02:03;2.58;87.26
67748;HTU21D;54543;50.712;6.070;2022-12-05T02:04:29;2.55;87.21
67748;HTU21D;54543;50.712;6.070;2022-12-05T02:06:55;2.49;87.14
67748;HTU21D;54543;50.712;6.070;2022-12-05T02:09:21;2.42;87.22
67748;HTU21D;54543;50.712;6.070;2022-12-05T02:11:55;2.40;87.54
67748;HTU21D;54543;50.712;6.070;2022-12-05T02:18:23;2.42;87.83
67748;HTU21D;54543;50.712;6.070;2022-12-05T02:20:43;2.42;87.82
67748;HTU21D;54543;50.712;6.070;2022-12-05T02:23:37;2.43;87.81
67748;HTU21D;54543;50.712;6.070;2022-12-05T02:26:30;2.42;87.80
67748;HTU21D;54543;50.712;6.070;2022-12-05T02:32:06;2.42;87.77
67748;HTU21D;54543;50.712;6.070;2022-12-05T02:37:25;2.41;87.59
67748;HTU21D;54543;50.712;6.070;2022-12-05T02:42:47;2.41;87.81
67748;HTU21D;54543;50.712;6.070;2022-12-05T02:45:16;2.42;87.76
67748;HTU21D;54543;50.712;6.070;2022-12-05T02:47:47;2.44;87.73
67748;HTU21D;54543;50.712;6.070;2022-12-05T02:50:17;2.45;87.61
67748;HTU21D;54543;50.712;6.070;2022-12-05T02:52:46;2.43;87.56
67748;HTU21D;54543;50.712;6.070;2022-12-05T02:55:13;2.41;87.57
67748;HTU21D;54543;50.712;6.070;2022-12-05T02:57:43;2.39;87.46
67748;HTU21D;54543;50.712;6.070;2022-12-05T03:00:10;2.36;87.61
67748;HTU21D;54543;50.712;6.070;2022-12-05T03:02:38;2.32;87.68
67748;HTU21D;54543;50.712;6.070;2022-12-05T03:05:43;2.34;87.95
67748;HTU21D;54543;50.712;6.070;2022-12-05T03:08:16;2.37;88.08
67748;HTU21D;54543;50.712;6.070;2022-12-05T03:10:44;2.37;87.92
67748;HTU21D;54543;50.712;6.070;2022-12-05T03:13:15;2.37;87.82
67748;HTU21D;54543;50.712;6.070;2022-12-05T03:15:47;2.32;87.88
67748;HTU21D;54543;50.712;6.070;2022-12-05T03:18:30;2.31;88.01
67748;HTU21D;54543;50.712;6.070;2022-12-05T03:21:01;2.32;88.07
67748;HTU21D;54543;50.712;6.070;2022-12-05T03:23:52;2.34;88.22
67748;HTU21D;54543;50.712;6.070;2022-12-05T03:34:30;2.34;88.02
67748;HTU21D;54543;50.712;6.070;2022-12-05T03:36:58;2.34;88.02
67748;HTU21D;54543;50.712;6.070;2022-12-05T03:39:31;2.32;88.07
67748;HTU21D;54543;50.712;6.070;2022-12-05T03:44:51;2.35;88.09
67748;HTU21D;54543;50.712;6.070;2022-12-05T03:49:50;2.31;88.03
67748;HTU21D;54543;50.712;6.070;2022-12-05T03:54:59;2.29;88.11
67748;HTU21D;54543;50.712;6.070;2022-12-05T03:59:56;2.28;88.22
67748;HTU21D;54543;50.712;6.070;2022-12-05T04:02:33;2.29;88.24
67748;HTU21D;54543;50.712;6.070;2022-12-05T04:05:11;2.31;88.26
67748;HTU21D;54543;50.712;6.070;2022-12-05T04:07:39;2.32;88.21
67748;HTU21D;54543;50.712;6.070;2022-12-05T04:10:10;2.32;88.24
67748;HTU21D;54543;50.712;6.070;2022-12-05T04:12:38;2.32;88.21
67748;HTU21D;54543;50.712;6.070;2022-12-05T04:15:08;2.32;88.15
67748;HTU21D;54543;50.712;6.070;2022-12-05T04:17:55;2.32;88.18
67748;HTU21D;54543;50.712;6.070;2022-12-05T04:20:35;2.31;88.16
67748;HTU21D;54543;50.712;6.070;2022-12-05T04:23:20;2.31;88.20
67748;HTU21D;54543;50.712;6.070;2022-12-05T04:26:19;2.34;88.19
67748;HTU21D;54543;50.712;6.070;2022-12-05T04:29:18;2.31;88.25
67748;HTU21D;54543;50.712;6.070;2022-12-05T04:31:51;2.30;88.14
67748;HTU21D;54543;50.712;6.070;2022-12-05T04:34:20;2.29;88.13
67748;HTU21D;54543;50.712;6.070;2022-12-05T04:36:54;2.28;88.18
67748;HTU21D;54543;50.712;6.070;2022-12-05T04:39:26;2.31;88.24
67748;HTU21D;54543;50.712;6.070;2022-12-05T04:42:02;2.30;88.18
67748;HTU21D;54543;50.712;6.070;2022-12-05T04:44:33;2.31;88.17
67748;HTU21D;54543;50.712;6.070;2022-12-05T04:47:02;2.31;88.19
67748;HTU21D;54543;50.712;6.070;2022-12-05T04:49:30;2.31;88.12
67748;HTU21D;54543;50.712;6.070;2022-12-05T04:52:01;2.31;88.08
67748;HTU21D;54543;50.712;6.070;2022-12-05T04:54:37;2.31;88.10
67748;HTU21D;54543;50.712;6.070;2022-12-05T04:57:10;2.31;88.13
67748;HTU21D;54543;50.712;6.070;2022-12-05T04:59:37;2.34;88.27
67748;HTU21D;54543;50.712;6.070;2022-12-05T05:02:08;2.34;88.25
67748;HTU21D;54543;50.712;6.070;2022-12-05T05:04:44;2.35;88.19
67748;HTU21D;54543;50.712;6.070;2022-12-05T05:07:12;2.36;88.18
67748;HTU21D;54543;50.712;6.070;2022-12-05T05:09:38;2.37;88.17
67748;HTU21D;54543;50.712;6.070;2022-12-05T05:12:05;2.40;88.12
67748;HTU21D;54543;50.712;6.070;2022-12-05T05:14:30;2.40;88.13
67748;HTU21D;54543;50.712;6.070;2022-12-05T05:16:56;2.41;88.15
67748;HTU21D;54543;50.712;6.070;2022-12-05T05:19:22;2.41;88.03
67748;HTU21D;54543;50.712;6.070;2022-12-05T05:21:48;2.40;88.03
67748;HTU21D;54543;50.712;6.070;2022-12-05T05:24:14;2.40;88.06
67748;HTU21D;54543;50.712;6.070;2022-12-05T05:26:44;2.41;88.05
67748;HTU21D;54543;50.712;6.070;2022-12-05T05:29:11;2.41;88.00
67748;HTU21D;54543;50.712;6.070;2022-12-05T05:31:37;2.41;87.99
67748;HTU21D;54543;50.712;6.070;2022-12-05T05:34:03;2.39;88.04
67748;HTU21D;54543;50.712;6.070;2022-12-05T05:36:29;2.40;88.00
67748;HTU21D;54543;50.712;6.070;2022-12-05T05:38:57;2.37;87.99
67748;HTU21D;54543;50.712;6.070;2022-12-05T05:43:50;2.35;88.17
67748;HTU21D;54543;50.712;6.070;2022-12-05T05:46:18;2.36;88.25
67748;HTU21D;54543;50.712;6.070;2022-12-05T05:48:44;2.37;88.26
67748;HTU21D;54543;50.712;6.070;2022-12-05T05:51:11;2.38;88.25
67748;HTU21D;54543;50.712;6.070;2022-12-05T05:53:37;2.38;88.26
67748;HTU21D;54543;50.712;6.070;2022-12-05T05:56:05;2.39;88.25
67748;HTU21D;54543;50.712;6.070;2022-12-05T05:58:31;2.39;88.22
67748;HTU21D;54543;50.712;6.070;2022-12-05T06:01:14;2.40;88.23
67748;HTU21D;54543;50.712;6.070;2022-12-05T06:03:40;2.41;88.25
67748;HTU21D;54543;50.712;6.070;2022-12-05T06:06:08;2.42;88.25
67748;HTU21D;54543;50.712;6.070;2022-12-05T06:08:36;2.41;88.18
67748;HTU21D;54543;50.712;6.070;2022-12-05T06:11:14;2.42;88.24
67748;HTU21D;54543;50.712;6.070;2022-12-05T06:13:41;2.45;88.24
67748;HTU21D;54543;50.712;6.070;2022-12-05T06:16:08;2.45;88.15
67748;HTU21D;54543;50.712;6.070;2022-12-05T06:18:34;2.43;88.02
67748;HTU21D;54543;50.712;6.070;2022-12-05T06:20:59;2.40;87.96
67748;HTU21D;54543;50.712;6.070;2022-12-05T06:23:25;2.38;88.06
67748;HTU21D;54543;50.712;6.070;2022-12-05T06:25:53;2.40;88.18
67748;HTU21D;54543;50.712;6.070;2022-12-05T06:28:20;2.46;88.38
67748;HTU21D;54543;50.712;6.070;2022-12-05T06:30:46;2.51;88.19
67748;HTU21D;54543;50.712;6.070;2022-12-05T06:33:12;2.54;87.96
67748;HTU21D;54543;50.712;6.070;2022-12-05T06:35:38;2.53;87.88
67748;HTU21D;54543;50.712;6.070;2022-12-05T06:38:05;2.55;87.80
67748;HTU21D;54543;50.712;6.070;2022-12-05T06:40:30;2.54;87.70
67748;HTU21D;54543;50.712;6.070;2022-12-05T06:42:56;2.54;87.68
67748;HTU21D;54543;50.712;6.070;2022-12-05T06:45:21;2.54;87.65
67748;HTU21D;54543;50.712;6.070;2022-12-05T06:47:47;2.52;87.66
67748;HTU21D;54543;50.712;6.070;2022-12-05T06:50:12;2.52;87.69
67748;HTU21D;54543;50.712;6.070;2022-12-05T06:52:38;2.51;87.64
67748;HTU21D;54543;50.712;6.070;2022-12-05T06:55:04;2.50;87.56
67748;HTU21D;54543;50.712;6.070;2022-12-05T06:57:30;2.47;87.61
67748;HTU21D;54543;50.712;6.070;2022-12-05T06:59:55;2.47;87.64
67748;HTU21D;54543;50.712;6.070;2022-12-05T07:02:41;2.47;87.67
67748;HTU21D;54543;50.712;6.070;2022-12-05T07:05:08;2.44;87.66
67748;HTU21D;54543;50.712;6.070;2022-12-05T07:07:35;2.42;87.69
67748;HTU21D;54543;50.712;6.070;2022-12-05T07:10:00;2.41;87.77
67748;HTU21D;54543;50.712;6.070;2022-12-05T07:12:26;2.43;87.89
67748;HTU21D;54543;50.712;6.070;2022-12-05T07:14:52;2.43;87.93
67748;HTU21D;54543;50.712;6.070;2022-12-05T07:17:18;2.46;87.95
67748;HTU21D;54543;50.712;6.070;2022-12-05T07:19:46;2.46;87.90
67748;HTU21D;54543;50.712;6.070;2022-12-05T07:22:12;2.50;87.77
67748;HTU21D;54543;50.712;6.070;2022-12-05T07:24:38;2.50;87.52
67748;HTU21D;54543;50.712;6.070;2022-12-05T07:27:03;2.49;87.59
67748;HTU21D;54543;50.712;6.070;2022-12-05T07:29:29;2.49;87.48
67748;HTU21D;54543;50.712;6.070;2022-12-05T07:31:54;2.51;87.41
67748;HTU21D;54543;50.712;6.070;2022-12-05T07:34:20;2.47;87.35
67748;HTU21D;54543;50.712;6.070;2022-12-05T07:36:45;2.44;87.42
67748;HTU21D;54543;50.712;6.070;2022-12-05T07:39:11;2.45;87.54
67748;HTU21D;54543;50.712;6.070;2022-12-05T07:41:36;2.45;87.64
67748;HTU21D;54543;50.712;6.070;2022-12-05T07:44:02;2.47;87.61
67748;HTU21D;54543;50.712;6.070;2022-12-05T07:46:27;2.45;87.59
67748;HTU21D;54543;50.712;6.070;2022-12-05T07:48:53;2.44;87.66
67748;HTU21D;54543;50.712;6.070;2022-12-05T07:51:20;2.50;87.75
67748;HTU21D;54543;50.712;6.070;2022-12-05T07:53:46;2.54;87.76
67748;HTU21D;54543;50.712;6.070;2022-12-05T07:56:14;2.58;87.72
67748;HTU21D;54543;50.712;6.070;2022-12-05T07:58:45;2.65;87.61
67748;HTU21D;54543;50.712;6.070;2022-12-05T08:01:13;2.70;87.39
67748;HTU21D;54543;50.712;6.070;2022-12-05T08:03:40;2.73;87.20
67748;HTU21D;54543;50.712;6.070;2022-12-05T08:06:12;2.74;86.89
67748;HTU21D;54543;50.712;6.070;2022-12-05T08:08:38;2.74;87.04
67748;HTU21D;54543;50.712;6.070;2022-12-05T08:11:13;2.78;86.97
67748;HTU21D;54543;50.712;6.070;2022-12-05T08:13:39;2.82;86.99
67748;HTU21D;54543;50.712;6.070;2022-12-05T08:16:08;2.85;86.90
67748;HTU21D;54543;50.712;6.070;2022-12-05T08:18:34;2.88;86.78
67748;HTU21D;54543;50.712;6.070;2022-12-05T08:21:04;2.94;86.82
67748;HTU21D;54543;50.712;6.070;2022-12-05T08:23:31;3.01;86.78
67748;HTU21D;54543;50.712;6.070;2022-12-05T08:26:03;3.13;86.68
67748;HTU21D;54543;50.712;6.070;2022-12-05T08:28:30;3.20;86.51
67748;HTU21D;54543;50.712;6.070;2022-12-05T08:31:02;3.29;86.37
67748;HTU21D;54543;50.712;6.070;2022-12-05T08:33:28;3.39;85.92
67748;HTU21D;54543;50.712;6.070;2022-12-05T08:35:53;3.46;85.49
67748;HTU21D;54543;50.712;6.070;2022-12-05T08:38:19;3.54;85.31
67748;HTU21D;54543;50.712;6.070;2022-12-05T08:40:44;3.61;85.14
67748;HTU21D;54543;50.712;6.070;2022-12-05T08:43:12;3.65;84.87
67748;HTU21D;54543;50.712;6.070;2022-12-05T08:45:37;3.69;84.67
67748;HTU21D;54543;50.712;6.070;2022-12-05T08:48:03;3.71;84.65
67748;HTU21D;54543;50.712;6.070;2022-12-05T08:50:29;3.72;84.57
67748;HTU21D;54543;50.712;6.070;2022-12-05T08:52:54;3.74;84.50
67748;HTU21D;54543;50.712;6.070;2022-12-05T08:55:19;3.68;84.43
67748;HTU21D;54543;50.712;6.070;2022-12-05T08:57:45;3.63;84.72
67748;HTU21D;54543;50.712;6.070;2022-12-05T09:00:11;3.63;84.87
67748;HTU21D;54543;50.712;6.070;2022-12-05T09:02:36;3.70;84.88
67748;HTU21D;54543;50.712;6.070;2022-12-05T09:05:02;3.75;84.67
67748;HTU21D;54543;50.712;6.070;2022-12-05T09:07:27;3.77;84.62
67748;HTU21D;54543;50.712;6.070;2022-12-05T09:09:53;3.82;84.53
67748;HTU21D;54543;50.712;6.070;2022-12-05T09:12:19;3.87;84.52
67748;HTU21D;54543;50.712;6.070;2022-12-05T09:14:44;3.90;84.39
67748;HTU21D;54543;50.712;6.070;2022-12-05T09:17:10;3.93;84.19
67748;HTU21D;54543;50.712;6.070;2022-12-05T09:19:35;3.92;84.11
67748;HTU21D;54543;50.712;6.070;2022-12-05T09:22:01;3.90;84.13
67748;HTU21D;54543;50.712;6.070;2022-12-05T09:24:26;3.86;83.97
67748;HTU21D;54543;50.712;6.070;2022-12-05T09:26:52;3.78;84.19
67748;HTU21D;54543;50.712;6.070;2022-12-05T09:29:18;3.83;84.62
67748;HTU21D;54543;50.712;6.070;2022-12-05T09:31:45;3.90;84.58
67748;HTU21D;54543;50.712;6.070;2022-12-05T09:34:12;3.92;84.47
67748;HTU21D;54543;50.712;6.070;2022-12-05T09:36:39;3.95;84.35
67748;HTU21D;54543;50.712;6.070;2022-12-05T09:39:05;3.99;84.17
67748;HTU21D;54543;50.712;6.070;2022-12-05T09:41:53;3.99;84.11
67748;HTU21D;54543;50.712;6.070;2022-12-05T09:45:15;3.99;84.14
67748;HTU21D;54543;50.712;6.070;2022-12-05T09:50:32;3.94;83.71
67748;HTU21D;54543;50.712;6.070;2022-12-05T09:53:19;3.92;83.77
67748;HTU21D;54543;50.712;6.070;2022-12-05T09:58:47;3.78;84.00
67748;HTU21D;54543;50.712;6.070;2022-12-05T10:01:40;3.72;84.17
67748;HTU21D;54543;50.712;6.070;2022-12-05T10:04:49;3.69;84.49
67748;HTU21D;54543;50.712;6.070;2022-12-05T10:12:44;3.72;84.74
67748;HTU21D;54543;50.712;6.070;2022-12-05T10:15:28;3.73;84.61
67748;HTU21D;54543;50.712;6.070;2022-12-05T10:20:46;3.68;84.58
67748;HTU21D;54543;50.712;6.070;2022-12-05T10:26:04;3.65;84.55
67748;HTU21D;54543;50.712;6.070;2022-12-05T10:29:21;3.62;84.68
67748;HTU21D;54543;50.712;6.070;2022-12-05T10:31:55;3.64;85.00
67748;HTU21D;54543;50.712;6.070;2022-12-05T10:37:03;3.63;84.97
67748;HTU21D;54543;50.712;6.070;2022-12-05T10:39:33;3.63;84.97
67748;HTU21D;54543;50.712;6.070;2022-12-05T10:41:58;3.64;84.82
67748;HTU21D;54543;50.712;6.070;2022-12-05T10:44:24;3.63;84.88
67748;HTU21D;54543;50.712;6.070;2022-12-05T10:46:50;3.61;84.92
67748;HTU21D;54543;50.712;6.070;2022-12-05T10:49:17;3.61;84.88
67748;HTU21D;54543;50.712;6.070;2022-12-05T10:51:43;3.59;84.95
67748;HTU21D;54543;50.712;6.070;2022-12-05T10:54:24;3.59;85.00
67748;HTU21D;54543;50.712;6.070;2022-12-05T10:56:52;3.61;85.02
67748;HTU21D;54543;50.712;6.070;2022-12-05T10:59:20;3.59;84.90
67748;HTU21D;54543;50.712;6.070;2022-12-05T11:04:40;3.56;84.86
67748;HTU21D;54543;50.712;6.070;2022-12-05T11:07:23;3.56;84.84
67748;HTU21D;54543;50.712;6.070;2022-12-05T11:09:49;3.54;84.92
67748;HTU21D;54543;50.712;6.070;2022-12-05T11:12:37;3.52;85.05
67748;HTU21D;54543;50.712;6.070;2022-12-05T11:15:30;3.45;84.81
67748;HTU21D;54543;50.712;6.070;2022-12-05T11:20:41;3.35;85.09
67748;HTU21D;54543;50.712;6.070;2022-12-05T11:25:46;3.36;85.51
67748;HTU21D;54543;50.712;6.070;2022-12-05T11:28:24;3.40;85.45
67748;HTU21D;54543;50.712;6.070;2022-12-05T11:30:59;3.45;85.63
67748;HTU21D;54543;50.712;6.070;2022-12-05T11:33:27;3.54;85.64
67748;HTU21D;54543;50.712;6.070;2022-12-05T11:35:56;3.61;85.38
67748;HTU21D;54543;50.712;6.070;2022-12-05T11:38:27;3.68;85.22
67748;HTU21D;54543;50.712;6.070;2022-12-05T11:41:07;3.74;85.12
67748;HTU21D;54543;50.712;6.070;2022-12-05T11:55:44;4.22;83.56
67748;HTU21D;54543;50.712;6.070;2022-12-05T12:06:58;4.37;82.98
67748;HTU21D;54543;50.712;6.070;2022-12-05T12:12:06;4.49;83.31
67748;HTU21D;54543;50.712;6.070;2022-12-05T12:17:32;4.60;82.38
67748;HTU21D;54543;50.712;6.070;2022-12-05T12:22:56;4.58;82.52
67748;HTU21D;54543;50.712;6.070;2022-12-05T12:37:00;4.29;83.28
67748;HTU21D;54543;50.712;6.070;2022-12-05T12:39:53;4.31;83.20
67748;HTU21D;54543;50.712;6.070;2022-12-05T12:45:21;4.37;83.52
67748;HTU21D;54543;50.712;6.070;2022-12-05T12:50:39;4.47;83.42
67748;HTU21D;54543;50.712;6.070;2022-12-05T12:53:19;4.50;83.34
67748;HTU21D;54543;50.712;6.070;2022-12-05T12:58:42;4.52;82.72
67748;HTU21D;54543;50.712;6.070;2022-12-05T13:01:32;4.49;82.52
67748;HTU21D;54543;50.712;6.070;2022-12-05T13:04:11;4.44;82.58
67748;HTU21D;54543;50.712;6.070;2022-12-05T13:06:40;4.35;82.81
67748;HTU21D;54543;50.712;6.070;2022-12-05T13:09:13;4.33;83.13
67748;HTU21D;54543;50.712;6.070;2022-12-05T13:11:41;4.37;83.45
67748;HTU21D;54543;50.712;6.070;2022-12-05T13:14:11;4.39;83.23
67748;HTU21D;54543;50.712;6.070;2022-12-05T13:16:40;4.37;83.13
67748;HTU21D;54543;50.712;6.070;2022-12-05T13:19:19;4.32;82.76
67748;HTU21D;54543;50.712;6.070;2022-12-05T13:21:47;4.31;83.21
67748;HTU21D;54543;50.712;6.070;2022-12-05T13:24:15;4.29;83.16
67748;HTU21D;54543;50.712;6.070;2022-12-05T13:26:47;4.29;83.28
67748;HTU21D;54543;50.712;6.070;2022-12-05T13:29:47;4.29;82.82
67748;HTU21D;54543;50.712;6.070;2022-12-05T13:32:34;4.23;82.50
67748;HTU21D;54543;50.712;6.070;2022-12-05T13:35:17;4.07;82.48
67748;HTU21D;54543;50.712;6.070;2022-12-05T13:38:03;3.90;83.00
67748;HTU21D;54543;50.712;6.070;2022-12-05T13:40:51;3.78;83.16
67748;HTU21D;54543;50.712;6.070;2022-12-05T13:43:41;3.68;83.50
67748;HTU21D;54543;50.712;6.070;2022-12-05T13:46:09;3.61;83.80
67748;HTU21D;54543;50.712;6.070;2022-12-05T13:48:39;3.55;84.07
67748;HTU21D;54543;50.712;6.070;2022-12-05T13:51:27;3.49;84.38
67748;HTU21D;54543;50.712;6.070;2022-12-05T13:54:11;3.49;84.63
67748;HTU21D;54543;50.712;6.070;2022-12-05T13:57:04;3.35;84.58
67748;HTU21D;54543;50.712;6.070;2022-12-05T14:07:55;3.27;85.01
67748;HTU21D;54543;50.712;6.070;2022-12-05T14:15:42;3.24;84.97
67748;HTU21D;54543;50.712;6.070;2022-12-05T14:18:17;3.28;85.08
67748;HTU21D;54543;50.712;6.070;2022-12-05T14:21:33;3.34;85.05
67748;HTU21D;54543;50.712;6.070;2022-12-05T14:34:27;3.29;84.33
67748;HTU21D;54543;50.712;6.070;2022-12-05T14:37:05;3.30;84.52
67748;HTU21D;54543;50.712;6.070;2022-12-05T14:39:40;3.29;84.61
67748;HTU21D;54543;50.712;6.070;2022-12-05T14:44:53;3.23;84.66
67748;HTU21D;54543;50.712;6.070;2022-12-05T14:47:22;3.18;84.74
67748;HTU21D;54543;50.712;6.070;2022-12-05T14:52:33;3.08;85.01
67748;HTU21D;54543;50.712;6.070;2022-12-05T14:55:02;3.04;85.11
67748;HTU21D;54543;50.712;6.070;2022-12-05T14:57:31;3.01;85.30
67748;HTU21D;54543;50.712;6.070;2022-12-05T15:00:04;3.01;85.29
67748;HTU21D;54543;50.712;6.070;2022-12-05T15:02:41;2.97;85.20
67748;HTU21D;54543;50.712;6.070;2022-12-05T15:05:18;2.91;85.25
67748;HTU21D;54543;50.712;6.070;2022-12-05T15:07:47;2.88;85.42
67748;HTU21D;54543;50.712;6.070;2022-12-05T15:10:15;2.87;85.36
67748;HTU21D;54543;50.712;6.070;2022-12-05T15:12:53;2.83;85.51
67748;HTU21D;54543;50.712;6.070;2022-12-05T15:15:34;2.78;85.58
67748;HTU21D;54543;50.712;6.070;2022-12-05T15:18:24;2.76;85.74
67748;HTU21D;54543;50.712;6.070;2022-12-05T15:20:57;2.75;85.80
67748;HTU21D;54543;50.712;6.070;2022-12-05T15:26:21;2.75;85.74
67748;HTU21D;54543;50.712;6.070;2022-12-05T15:31:50;2.74;85.76
67748;HTU21D;54543;50.712;6.070;2022-12-05T15:34:36;2.76;85.72
67748;HTU21D;54543;50.712;6.070;2022-12-05T15:42:15;2.64;85.87
67748;HTU21D;54543;50.712;6.070;2022-12-05T15:44:41;2.62;86.04
67748;HTU21D;54543;50.712;6.070;2022-12-05T15:47:19;2.61;86.13
67748;HTU21D;54543;50.712;6.070;2022-12-05T15:49:45;2.60;86.29
67748;HTU21D;54543;50.712;6.070;2022-12-05T15:55:06;2.59;86.29
67748;HTU21D;54543;50.712;6.070;2022-12-05T15:57:54;2.57;86.32
67748;HTU21D;54543;50.712;6.070;2022-12-05T16:00:25;2.55;86.35
67748;HTU21D;54543;50.712;6.070;2022-12-05T16:02:57;2.54;86.35
67748;HTU21D;54543;50.712;6.070;2022-12-05T16:05:24;2.53;86.43
67748;HTU21D;54543;50.712;6.070;2022-12-05T16:07:53;2.52;86.53
67748;HTU21D;54543;50.712;6.070;2022-12-05T16:10:19;2.51;86.47
67748;HTU21D;54543;50.712;6.070;2022-12-05T16:12:46;2.51;86.48
67748;HTU21D;54543;50.712;6.070;2022-12-05T16:15:23;2.47;86.48
67748;HTU21D;54543;50.712;6.070;2022-12-05T16:17:54;2.47;86.54
67748;HTU21D;54543;50.712;6.070;2022-12-05T16:20:23;2.45;86.58
67748;HTU21D;54543;50.712;6.070;2022-12-05T16:22:52;2.44;86.20
67748;HTU21D;54543;50.712;6.070;2022-12-05T16:25:36;2.42;86.32
67748;HTU21D;54543;50.712;6.070;2022-12-05T16:30:36;2.39;86.42
67748;HTU21D;54543;50.712;6.070;2022-12-05T16:33:12;2.35;86.58
67748;HTU21D;54543;50.712;6.070;2022-12-05T16:35:43;2.34;86.69
67748;HTU21D;54543;50.712;6.070;2022-12-05T16:40:36;2.27;87.06
67748;HTU21D;54543;50.712;6.070;2022-12-05T16:43:56;2.24;87.38
67748;HTU21D;54543;50.712;6.070;2022-12-05T16:48:38;2.20;87.32
67748;HTU21D;54543;50.712;6.070;2022-12-05T16:51:20;2.17;87.47
67748;HTU21D;54543;50.712;6.070;2022-12-05T16:53:52;2.17;87.50
67748;HTU21D;54543;50.712;6.070;2022-12-05T16:56:22;2.19;87.51
67748;HTU21D;54543;50.712;6.070;2022-12-05T16:58:48;2.21;87.57
67748;HTU21D;54543;50.712;6.070;2022-12-05T17:01:16;2.21;87.42
67748;HTU21D;54543;50.712;6.070;2022-12-05T17:03:42;2.17;87.53
67748;HTU21D;54543;50.712;6.070;2022-12-05T17:06:08;2.19;87.70
67748;HTU21D;54543;50.712;6.070;2022-12-05T17:08:33;2.17;87.77
67748;HTU21D;54543;50.712;6.070;2022-12-05T17:11:00;2.16;87.86
67748;HTU21D;54543;50.712;6.070;2022-12-05T17:13:29;2.16;87.87
67748;HTU21D;54543;50.712;6.070;2022-12-05T17:15:55;2.17;87.83
67748;HTU21D;54543;50.712;6.070;2022-12-05T17:18:20;2.17;87.74
67748;HTU21D;54543;50.712;6.070;2022-12-05T17:20:52;2.21;87.43
67748;HTU21D;54543;50.712;6.070;2022-12-05T17:23:18;2.19;87.13
67748;HTU21D;54543;50.712;6.070;2022-12-05T17:25:48;2.14;87.24
67748;HTU21D;54543;50.712;6.070;2022-12-05T17:28:14;2.15;86.99
67748;HTU21D;54543;50.712;6.070;2022-12-05T17:30:40;2.12;87.32
67748;HTU21D;54543;50.712;6.070;2022-12-05T17:33:09;2.11;87.73
67748;HTU21D;54543;50.712;6.070;2022-12-05T17:35:35;2.08;88.02
67748;HTU21D;54543;50.712;6.070;2022-12-05T17:38:02;2.05;88.24
67748;HTU21D;54543;50.712;6.070;2022-12-05T17:40:28;2.02;88.35
67748;HTU21D;54543;50.712;6.070;2022-12-05T17:42:54;2.02;88.45
67748;HTU21D;54543;50.712;6.070;2022-12-05T17:45:20;2.03;88.41
67748;HTU21D;54543;50.712;6.070;2022-12-05T17:47:45;2.05;88.41
67748;HTU21D;54543;50.712;6.070;2022-12-05T17:50:17;2.05;88.35
67748;HTU21D;54543;50.712;6.070;2022-12-05T17:52:43;2.06;88.36
67748;HTU21D;54543;50.712;6.070;2022-12-05T17:55:15;2.05;88.22
67748;HTU21D;54543;50.712;6.070;2022-12-05T17:57:42;2.00;88.54
67748;HTU21D;54543;50.712;6.070;2022-12-05T18:00:08;1.98;88.57
67748;HTU21D;54543;50.712;6.070;2022-12-05T18:02:34;1.96;88.51
67748;HTU21D;54543;50.712;6.070;2022-12-05T18:04:59;1.96;88.58
67748;HTU21D;54543;50.712;6.070;2022-12-05T18:07:25;1.95;88.38
67748;HTU21D;54543;50.712;6.070;2022-12-05T18:09:50;1.97;88.67
67748;HTU21D;54543;50.712;6.070;2022-12-05T18:12:16;1.99;88.51
67748;HTU21D;54543;50.712;6.070;2022-12-05T18:14:41;2.01;88.57
67748;HTU21D;54543;50.712;6.070;2022-12-05T18:17:07;1.99;88.73
67748;HTU21D;54543;50.712;6.070;2022-12-05T18:19:32;1.97;88.67
67748;HTU21D;54543;50.712;6.070;2022-12-05T18:21:58;1.99;88.64
67748;HTU21D;54543;50.712;6.070;2022-12-05T18:24:24;1.99;88.67
67748;HTU21D;54543;50.712;6.070;2022-12-05T18:26:49;1.99;88.75
67748;HTU21D;54543;50.712;6.070;2022-12-05T18:29:15;1.98;88.74
67748;HTU21D;54543;50.712;6.070;2022-12-05T18:31:40;2.00;88.68
67748;HTU21D;54543;50.712;6.070;2022-12-05T18:34:07;2.00;88.66
67748;HTU21D;54543;50.712;6.070;2022-12-05T18:36:33;1.99;88.65